sensor_id;sensor_type;location;lat;lon;timestamp;pressure;altitude;pressure_sealevel;temperature;humidity
45071;BME280;30836;48.906;9.140;2022-11-12T00:00:40;1002.05;;;14.26;46.60
45071;BME280;30836;48.906;9.140;2022-11-12T00:01:41;1002.05;;;14.25;46.59
45071;BME280;30836;48.906;9.140;2022-11-12T00:02:42;1002.09;;;14.25;46.53
45071;BME280;30836;48.906;9.140;2022-11-12T00:03:42;1002.07;;;14.24;46.56
45071;BME280;30836;48.906;9.140;2022-11-12T00:04:43;1002.07;;;14.21;46.61
45071;BME280;30836;48.906;9.140;2022-11-12T00:05:43;1002.09;;;14.20;46.69
45071;BME280;30836;48.906;9.140;2022-11-12T00:06:44;1002.11;;;14.19;46.74
45071;BME280;30836;48.906;9.140;2022-11-12T00:07:44;1002.15;;;14.19;46.76
45071;BME280;30836;48.906;9.140;2022-11-12T00:08:45;1002.15;;;14.20;46.81
45071;BME280;30836;48.906;9.140;2022-11-12T00:09:45;1002.13;;;14.21;46.79
45071;BME280;30836;48.906;9.140;2022-11-12T00:10:46;1002.11;;;14.23;46.74
45071;BME280;30836;48.906;9.140;2022-11-12T00:11:46;1002.09;;;14.24;46.74
45071;BME280;30836;48.906;9.140;2022-11-12T00:12:47;1002.09;;;14.23;46.91
45071;BME280;30836;48.906;9.140;2022-11-12T00:13:47;1002.05;;;14.22;46.96
45071;BME280;30836;48.906;9.140;2022-11-12T00:14:48;1002.05;;;14.19;46.99
45071;BME280;30836;48.906;9.140;2022-11-12T00:15:48;1002.05;;;14.17;47.01
45071;BME280;30836;48.906;9.140;2022-11-12T00:16:49;1002.07;;;14.16;47.04
45071;BME280;30836;48.906;9.140;2022-11-12T00:17:49;1002.03;;;14.15;47.07
45071;BME280;30836;48.906;9.140;2022-11-12T00:18:49;1002.03;;;14.14;47.08
45071;BME280;30836;48.906;9.140;2022-11-12T00:19:50;1002.03;;;14.14;47.17
45071;BME280;30836;48.906;9.140;2022-11-12T00:20:51;1002.03;;;14.14;47.24
45071;BME280;30836;48.906;9.140;2022-11-12T00:21:51;1002.01;;;14.14;47.30
45071;BME280;30836;48.906;9.140;2022-11-12T00:22:51;1002.03;;;14.14;47.24
45071;BME280;30836;48.906;9.140;2022-11-12T00:23:52;1002.01;;;14.13;47.28
45071;BME280;30836;48.906;9.140;2022-11-12T00:24:52;1002.03;;;14.12;47.34
45071;BME280;30836;48.906;9.140;2022-11-12T00:26:59;1001.97;;;14.08;47.18
45071;BME280;30836;48.906;9.140;2022-11-12T00:28:03;1002.01;;;14.06;47.12
45071;BME280;30836;48.906;9.140;2022-11-12T00:29:05;1001.99;;;14.04;47.02
45071;BME280;30836;48.906;9.140;2022-11-12T00:30:05;1002.01;;;14.02;46.98
45071;BME280;30836;48.906;9.140;2022-11-12T00:31:07;1002.01;;;13.99;46.96
45071;BME280;30836;48.906;9.140;2022-11-12T00:32:09;1002.03;;;13.96;46.98
45071;BME280;30836;48.906;9.140;2022-11-12T00:33:10;1002.03;;;13.95;46.98
45071;BME280;30836;48.906;9.140;2022-11-12T00:34:11;1001.99;;;13.92;47.06
45071;BME280;30836;48.906;9.140;2022-11-12T00:35:11;1001.99;;;13.86;47.18
45071;BME280;30836;48.906;9.140;2022-11-12T00:36:12;1001.97;;;13.81;47.25
45071;BME280;30836;48.906;9.140;2022-11-12T00:37:12;1002.01;;;13.76;47.32
45071;BME280;30836;48.906;9.140;2022-11-12T00:38:13;1002.03;;;13.71;47.27
45071;BME280;30836;48.906;9.140;2022-11-12T00:39:13;1002.01;;;13.65;47.37
45071;BME280;30836;48.906;9.140;2022-11-12T00:40:14;1002.01;;;13.61;47.44
45071;BME280;30836;48.906;9.140;2022-11-12T00:41:15;1002.03;;;13.57;47.42
45071;BME280;30836;48.906;9.140;2022-11-12T00:42:15;1002.01;;;13.53;47.47
45071;BME280;30836;48.906;9.140;2022-11-12T00:43:15;1002.03;;;13.51;47.52
45071;BME280;30836;48.906;9.140;2022-11-12T00:44:16;1002.01;;;13.49;47.42
45071;BME280;30836;48.906;9.140;2022-11-12T00:45:17;1002.01;;;13.49;47.45
45071;BME280;30836;48.906;9.140;2022-11-12T00:46:18;1002.01;;;13.50;47.32
45071;BME280;30836;48.906;9.140;2022-11-12T00:47:18;1002.05;;;13.52;47.21
45071;BME280;30836;48.906;9.140;2022-11-12T00:48:19;1002.03;;;13.54;47.16
45071;BME280;30836;48.906;9.140;2022-11-12T00:49:19;1002.03;;;13.56;47.06
45071;BME280;30836;48.906;9.140;2022-11-12T00:50:20;1002.03;;;13.56;47.00
45071;BME280;30836;48.906;9.140;2022-11-12T00:51:20;1002.05;;;13.55;47.02
45071;BME280;30836;48.906;9.140;2022-11-12T00:52:21;1002.01;;;13.52;47.04
45071;BME280;30836;48.906;9.140;2022-11-12T00:53:21;1002.01;;;13.47;47.10
45071;BME280;30836;48.906;9.140;2022-11-12T00:54:22;1002.01;;;13.43;47.15
45071;BME280;30836;48.906;9.140;2022-11-12T00:55:22;1001.99;;;13.39;47.23
45071;BME280;30836;48.906;9.140;2022-11-12T00:56:22;1001.99;;;13.36;47.46
45071;BME280;30836;48.906;9.140;2022-11-12T00:57:23;1001.99;;;13.32;47.71
45071;BME280;30836;48.906;9.140;2022-11-12T00:58:23;1001.99;;;13.30;47.81
45071;BME280;30836;48.906;9.140;2022-11-12T00:59:24;1001.97;;;13.28;48.17
45071;BME280;30836;48.906;9.140;2022-11-12T01:00:24;1001.97;;;13.24;48.18
45071;BME280;30836;48.906;9.140;2022-11-12T01:01:25;1002.01;;;13.21;48.49
45071;BME280;30836;48.906;9.140;2022-11-12T01:02:26;1001.99;;;13.18;48.55
45071;BME280;30836;48.906;9.140;2022-11-12T01:03:26;1001.99;;;13.17;48.52
45071;BME280;30836;48.906;9.140;2022-11-12T01:04:27;1001.99;;;13.14;48.81
45071;BME280;30836;48.906;9.140;2022-11-12T01:05:27;1002.01;;;13.11;48.94
45071;BME280;30836;48.906;9.140;2022-11-12T01:06:28;1002.01;;;13.09;48.99
45071;BME280;30836;48.906;9.140;2022-11-12T01:07:28;1002.01;;;13.06;49.19
45071;BME280;30836;48.906;9.140;2022-11-12T01:08:29;1001.99;;;13.04;49.50
45071;BME280;30836;48.906;9.140;2022-11-12T01:09:29;1002.01;;;13.01;49.73
45071;BME280;30836;48.906;9.140;2022-11-12T01:10:30;1001.99;;;13.00;49.73
45071;BME280;30836;48.906;9.140;2022-11-12T01:11:30;1001.95;;;12.97;50.14
45071;BME280;30836;48.906;9.140;2022-11-12T01:12:31;1001.95;;;12.93;50.13
45071;BME280;30836;48.906;9.140;2022-11-12T01:12:41;1001.95;;;12.94;50.10
45071;BME280;30836;48.906;9.140;2022-11-12T01:13:43;1001.95;;;12.96;50.34
45071;BME280;30836;48.906;9.140;2022-11-12T01:14:45;1001.99;;;13.01;50.38
45071;BME280;30836;48.906;9.140;2022-11-12T01:15:45;1001.95;;;13.09;50.04
45071;BME280;30836;48.906;9.140;2022-11-12T01:16:45;1001.97;;;13.22;49.72
45071;BME280;30836;48.906;9.140;2022-11-12T01:17:46;1001.97;;;13.35;49.40
45071;BME280;30836;48.906;9.140;2022-11-12T01:18:47;1001.97;;;13.46;49.43
45071;BME280;30836;48.906;9.140;2022-11-12T01:19:51;1002.01;;;13.55;49.37
45071;BME280;30836;48.906;9.140;2022-11-12T01:20:51;1002.01;;;13.66;49.06
45071;BME280;30836;48.906;9.140;2022-11-12T01:21:52;1002.03;;;13.77;48.80
45071;BME280;30836;48.906;9.140;2022-11-12T01:22:52;1002.03;;;13.86;48.49
45071;BME280;30836;48.906;9.140;2022-11-12T01:23:52;1002.05;;;13.93;48.33
45071;BME280;30836;48.906;9.140;2022-11-12T01:24:53;1002.05;;;13.98;47.96
45071;BME280;30836;48.906;9.140;2022-11-12T01:25:53;1002.07;;;14.02;47.86
45071;BME280;30836;48.906;9.140;2022-11-12T01:26:54;1002.05;;;14.04;47.56
45071;BME280;30836;48.906;9.140;2022-11-12T01:27:54;1002.05;;;14.05;47.48
45071;BME280;30836;48.906;9.140;2022-11-12T01:28:55;1002.07;;;14.08;47.42
45071;BME280;30836;48.906;9.140;2022-11-12T01:29:56;1002.05;;;14.12;47.30
45071;BME280;30836;48.906;9.140;2022-11-12T01:30:56;1002.05;;;14.17;47.23
45071;BME280;30836;48.906;9.140;2022-11-12T01:31:57;1002.05;;;14.22;47.15
45071;BME280;30836;48.906;9.140;2022-11-12T01:32:57;1002.01;;;14.27;47.05
45071;BME280;30836;48.906;9.140;2022-11-12T01:33:59;1001.99;;;14.31;46.77
45071;BME280;30836;48.906;9.140;2022-11-12T01:35:01;1002.01;;;14.35;46.56
45071;BME280;30836;48.906;9.140;2022-11-12T01:36:02;1001.99;;;14.39;46.36
45071;BME280;30836;48.906;9.140;2022-11-12T01:37:02;1001.99;;;14.43;46.05
45071;BME280;30836;48.906;9.140;2022-11-12T01:38:03;1001.97;;;14.45;45.94
45071;BME280;30836;48.906;9.140;2022-11-12T01:39:04;1001.97;;;14.47;45.83
45071;BME280;30836;48.906;9.140;2022-11-12T01:40:06;1001.97;;;14.49;45.65
45071;BME280;30836;48.906;9.140;2022-11-12T01:41:08;1001.93;;;14.50;45.56
45071;BME280;30836;48.906;9.140;2022-11-12T01:42:11;1001.95;;;14.52;45.51
45071;BME280;30836;48.906;9.140;2022-11-12T01:43:12;1001.95;;;14.54;45.41
45071;BME280;30836;48.906;9.140;2022-11-12T01:44:14;1001.91;;;14.55;45.14
45071;BME280;30836;48.906;9.140;2022-11-12T01:45:15;1001.89;;;14.55;45.15
45071;BME280;30836;48.906;9.140;2022-11-12T01:46:17;1001.89;;;14.54;45.14
45071;BME280;30836;48.906;9.140;2022-11-12T01:47:25;1001.87;;;14.52;45.10
45071;BME280;30836;48.906;9.140;2022-11-12T01:48:29;1001.85;;;14.51;45.13
45071;BME280;30836;48.906;9.140;2022-11-12T01:50:45;1001.83;;;14.50;45.04
45071;BME280;30836;48.906;9.140;2022-11-12T01:51:46;1001.79;;;14.50;45.03
45071;BME280;30836;48.906;9.140;2022-11-12T01:53:57;1001.76;;;14.52;45.04
45071;BME280;30836;48.906;9.140;2022-11-12T01:55:06;1001.74;;;14.54;45.11
45071;BME280;30836;48.906;9.140;2022-11-12T01:56:14;1001.70;;;14.56;45.21
45071;BME280;30836;48.906;9.140;2022-11-12T01:57:16;1001.70;;;14.57;45.22
45071;BME280;30836;48.906;9.140;2022-11-12T01:58:24;1001.68;;;14.58;45.30
45071;BME280;30836;48.906;9.140;2022-11-12T01:59:29;1001.68;;;14.59;45.36
45071;BME280;30836;48.906;9.140;2022-11-12T02:00:36;1001.66;;;14.60;45.33
45071;BME280;30836;48.906;9.140;2022-11-12T02:01:36;1001.66;;;14.61;45.19
45071;BME280;30836;48.906;9.140;2022-11-12T02:02:37;1001.66;;;14.61;45.17
45071;BME280;30836;48.906;9.140;2022-11-12T02:03:39;1001.66;;;14.60;45.00
45071;BME280;30836;48.906;9.140;2022-11-12T02:04:40;1001.64;;;14.60;44.94
45071;BME280;30836;48.906;9.140;2022-11-12T02:04:51;1001.62;;;14.57;44.90
45071;BME280;30836;48.906;9.140;2022-11-12T02:05:58;1001.62;;;14.56;44.89
45071;BME280;30836;48.906;9.140;2022-11-12T02:07:02;1001.62;;;14.48;45.18
45071;BME280;30836;48.906;9.140;2022-11-12T02:08:03;1001.64;;;14.35;45.43
45071;BME280;30836;48.906;9.140;2022-11-12T02:09:05;1001.60;;;14.23;45.65
45071;BME280;30836;48.906;9.140;2022-11-12T02:10:06;1001.64;;;14.20;45.66
45071;BME280;30836;48.906;9.140;2022-11-12T02:11:09;1001.58;;;14.23;45.69
45071;BME280;30836;48.906;9.140;2022-11-12T02:12:12;1001.58;;;14.28;45.73
45071;BME280;30836;48.906;9.140;2022-11-12T02:13:13;1001.58;;;14.33;45.75
45071;BME280;30836;48.906;9.140;2022-11-12T02:14:14;1001.56;;;14.38;45.67
45071;BME280;30836;48.906;9.140;2022-11-12T02:15:15;1001.54;;;14.42;45.55
45071;BME280;30836;48.906;9.140;2022-11-12T02:16:15;1001.54;;;14.46;45.50
45071;BME280;30836;48.906;9.140;2022-11-12T02:17:16;1001.58;;;14.47;45.42
45071;BME280;30836;48.906;9.140;2022-11-12T02:18:16;1001.58;;;14.48;45.31
45071;BME280;30836;48.906;9.140;2022-11-12T02:19:17;1001.60;;;14.49;45.18
45071;BME280;30836;48.906;9.140;2022-11-12T02:20:18;1001.58;;;14.50;45.11
45071;BME280;30836;48.906;9.140;2022-11-12T02:21:20;1001.54;;;14.51;45.00
45071;BME280;30836;48.906;9.140;2022-11-12T02:22:21;1001.52;;;14.51;44.88
45071;BME280;30836;48.906;9.140;2022-11-12T02:23:22;1001.50;;;14.52;44.76
45071;BME280;30836;48.906;9.140;2022-11-12T02:25:22;1001.50;;;14.52;44.65
45071;BME280;30836;48.906;9.140;2022-11-12T02:26:24;1001.48;;;14.52;44.64
45071;BME280;30836;48.906;9.140;2022-11-12T02:27:27;1001.50;;;14.53;44.45
45071;BME280;30836;48.906;9.140;2022-11-12T02:28:27;1001.48;;;14.53;44.29
45071;BME280;30836;48.906;9.140;2022-11-12T02:29:31;1001.46;;;14.52;44.20
45071;BME280;30836;48.906;9.140;2022-11-12T02:30:32;1001.48;;;14.50;44.28
45071;BME280;30836;48.906;9.140;2022-11-12T02:31:34;1001.42;;;14.48;44.31
45071;BME280;30836;48.906;9.140;2022-11-12T02:32:35;1001.42;;;14.47;44.33
45071;BME280;30836;48.906;9.140;2022-11-12T02:33:36;1001.42;;;14.46;44.28
45071;BME280;30836;48.906;9.140;2022-11-12T02:34:36;1001.42;;;14.45;44.14
45071;BME280;30836;48.906;9.140;2022-11-12T02:35:37;1001.44;;;14.45;43.93
45071;BME280;30836;48.906;9.140;2022-11-12T02:36:37;1001.44;;;14.44;43.99
45071;BME280;30836;48.906;9.140;2022-11-12T02:37:38;1001.46;;;14.42;44.02
45071;BME280;30836;48.906;9.140;2022-11-12T02:38:38;1001.46;;;14.40;44.15
45071;BME280;30836;48.906;9.140;2022-11-12T02:39:38;1001.44;;;14.40;44.21
45071;BME280;30836;48.906;9.140;2022-11-12T02:40:39;1001.46;;;14.39;44.41
45071;BME280;30836;48.906;9.140;2022-11-12T02:41:39;1001.44;;;14.38;44.49
45071;BME280;30836;48.906;9.140;2022-11-12T02:42:40;1001.40;;;14.39;44.59
45071;BME280;30836;48.906;9.140;2022-11-12T02:43:41;1001.40;;;14.39;44.54
45071;BME280;30836;48.906;9.140;2022-11-12T02:44:42;1001.40;;;14.39;44.33
45071;BME280;30836;48.906;9.140;2022-11-12T02:45:42;1001.40;;;14.38;44.20
45071;BME280;30836;48.906;9.140;2022-11-12T02:46:43;1001.38;;;14.37;44.14
45071;BME280;30836;48.906;9.140;2022-11-12T02:47:43;1001.40;;;14.35;44.13
45071;BME280;30836;48.906;9.140;2022-11-12T02:48:44;1001.38;;;14.34;44.15
45071;BME280;30836;48.906;9.140;2022-11-12T02:49:44;1001.40;;;14.33;44.22
45071;BME280;30836;48.906;9.140;2022-11-12T02:50:46;1001.42;;;14.32;44.28
45071;BME280;30836;48.906;9.140;2022-11-12T02:51:46;1001.42;;;14.32;44.32
45071;BME280;30836;48.906;9.140;2022-11-12T02:52:47;1001.44;;;14.31;44.36
45071;BME280;30836;48.906;9.140;2022-11-12T02:53:47;1001.46;;;14.31;44.41
45071;BME280;30836;48.906;9.140;2022-11-12T02:54:48;1001.46;;;14.31;44.45
45071;BME280;30836;48.906;9.140;2022-11-12T02:55:48;1001.46;;;14.30;44.37
45071;BME280;30836;48.906;9.140;2022-11-12T02:56:48;1001.46;;;14.30;44.43
45071;BME280;30836;48.906;9.140;2022-11-12T02:57:49;1001.46;;;14.29;44.51
45071;BME280;30836;48.906;9.140;2022-11-12T02:58:49;1001.48;;;14.28;44.56
45071;BME280;30836;48.906;9.140;2022-11-12T02:59:50;1001.48;;;14.29;44.65
45071;BME280;30836;48.906;9.140;2022-11-12T03:00:50;1001.48;;;14.29;44.67
45071;BME280;30836;48.906;9.140;2022-11-12T03:01:51;1001.50;;;14.29;44.66
45071;BME280;30836;48.906;9.140;2022-11-12T03:02:51;1001.50;;;14.29;44.74
45071;BME280;30836;48.906;9.140;2022-11-12T03:03:52;1001.50;;;14.30;44.84
45071;BME280;30836;48.906;9.140;2022-11-12T03:04:52;1001.52;;;14.30;44.90
45071;BME280;30836;48.906;9.140;2022-11-12T03:05:57;1001.52;;;14.31;44.86
45071;BME280;30836;48.906;9.140;2022-11-12T03:06:59;1001.52;;;14.32;44.80
45071;BME280;30836;48.906;9.140;2022-11-12T03:08:04;1001.52;;;14.32;44.70
45071;BME280;30836;48.906;9.140;2022-11-12T03:09:06;1001.52;;;14.33;44.72
45071;BME280;30836;48.906;9.140;2022-11-12T03:10:07;1001.52;;;14.33;44.66
45071;BME280;30836;48.906;9.140;2022-11-12T03:11:08;1001.56;;;14.32;44.67
45071;BME280;30836;48.906;9.140;2022-11-12T03:12:11;1001.56;;;14.33;44.61
45071;BME280;30836;48.906;9.140;2022-11-12T03:13:11;1001.56;;;14.33;44.61
45071;BME280;30836;48.906;9.140;2022-11-12T03:14:11;1001.56;;;14.33;44.67
45071;BME280;30836;48.906;9.140;2022-11-12T03:15:12;1001.56;;;14.34;44.75
45071;BME280;30836;48.906;9.140;2022-11-12T03:16:12;1001.58;;;14.33;44.81
45071;BME280;30836;48.906;9.140;2022-11-12T03:17:13;1001.58;;;14.33;44.89
45071;BME280;30836;48.906;9.140;2022-11-12T03:18:13;1001.58;;;14.33;44.99
45071;BME280;30836;48.906;9.140;2022-11-12T03:19:14;1001.60;;;14.33;45.09
45071;BME280;30836;48.906;9.140;2022-11-12T03:20:14;1001.62;;;14.33;45.24
45071;BME280;30836;48.906;9.140;2022-11-12T03:21:15;1001.62;;;14.33;45.29
45071;BME280;30836;48.906;9.140;2022-11-12T03:22:15;1001.62;;;14.34;45.23
45071;BME280;30836;48.906;9.140;2022-11-12T03:23:16;1001.62;;;14.31;45.29
45071;BME280;30836;48.906;9.140;2022-11-12T03:24:16;1001.62;;;14.23;45.63
45071;BME280;30836;48.906;9.140;2022-11-12T03:25:17;1001.58;;;14.11;46.02
45071;BME280;30836;48.906;9.140;2022-11-12T03:26:17;1001.58;;;13.99;46.33
45071;BME280;30836;48.906;9.140;2022-11-12T03:27:18;1001.58;;;13.88;46.62
45071;BME280;30836;48.906;9.140;2022-11-12T03:28:18;1001.58;;;13.78;46.81
45071;BME280;30836;48.906;9.140;2022-11-12T03:29:18;1001.56;;;13.70;47.02
45071;BME280;30836;48.906;9.140;2022-11-12T03:30:19;1001.56;;;13.63;47.27
45071;BME280;30836;48.906;9.140;2022-11-12T03:31:19;1001.54;;;13.56;47.45
45071;BME280;30836;48.906;9.140;2022-11-12T03:32:20;1001.56;;;13.50;47.61
45071;BME280;30836;48.906;9.140;2022-11-12T03:33:20;1001.58;;;13.45;47.74
45071;BME280;30836;48.906;9.140;2022-11-12T03:34:21;1001.54;;;13.40;47.91
45071;BME280;30836;48.906;9.140;2022-11-12T03:35:21;1001.56;;;13.35;48.04
45071;BME280;30836;48.906;9.140;2022-11-12T03:36:21;1001.56;;;13.32;48.08
45071;BME280;30836;48.906;9.140;2022-11-12T03:37:22;1001.54;;;13.31;48.11
45071;BME280;30836;48.906;9.140;2022-11-12T03:38:22;1001.52;;;13.32;48.17
45071;BME280;30836;48.906;9.140;2022-11-12T03:39:23;1001.52;;;13.31;48.16
45071;BME280;30836;48.906;9.140;2022-11-12T03:40:23;1001.50;;;13.30;48.19
45071;BME280;30836;48.906;9.140;2022-11-12T03:41:24;1001.50;;;13.29;48.21
45071;BME280;30836;48.906;9.140;2022-11-12T03:42:24;1001.48;;;13.28;48.22
45071;BME280;30836;48.906;9.140;2022-11-12T03:43:25;1001.44;;;13.26;48.26
45071;BME280;30836;48.906;9.140;2022-11-12T03:44:25;1001.44;;;13.25;48.31
45071;BME280;30836;48.906;9.140;2022-11-12T03:45:26;1001.42;;;13.23;48.36
45071;BME280;30836;48.906;9.140;2022-11-12T03:46:27;1001.44;;;13.23;48.30
45071;BME280;30836;48.906;9.140;2022-11-12T03:47:27;1001.42;;;13.23;48.24
45071;BME280;30836;48.906;9.140;2022-11-12T03:48:28;1001.44;;;13.21;48.27
45071;BME280;30836;48.906;9.140;2022-11-12T03:49:28;1001.44;;;13.17;48.25
45071;BME280;30836;48.906;9.140;2022-11-12T03:50:29;1001.40;;;13.13;48.33
45071;BME280;30836;48.906;9.140;2022-11-12T03:51:29;1001.40;;;13.10;48.44
45071;BME280;30836;48.906;9.140;2022-11-12T03:52:30;1001.44;;;13.07;48.47
45071;BME280;30836;48.906;9.140;2022-11-12T03:53:30;1001.46;;;13.05;48.50
45071;BME280;30836;48.906;9.140;2022-11-12T03:54:31;1001.46;;;13.03;48.58
45071;BME280;30836;48.906;9.140;2022-11-12T03:55:31;1001.50;;;13.02;48.66
45071;BME280;30836;48.906;9.140;2022-11-12T03:56:32;1001.50;;;13.03;48.76
45071;BME280;30836;48.906;9.140;2022-11-12T03:57:32;1001.52;;;13.06;48.70
45071;BME280;30836;48.906;9.140;2022-11-12T03:58:33;1001.52;;;13.08;48.66
45071;BME280;30836;48.906;9.140;2022-11-12T03:59:33;1001.52;;;13.11;48.58
45071;BME280;30836;48.906;9.140;2022-11-12T04:00:33;1001.52;;;13.10;48.67
45071;BME280;30836;48.906;9.140;2022-11-12T04:01:34;1001.54;;;13.07;48.76
45071;BME280;30836;48.906;9.140;2022-11-12T04:02:34;1001.60;;;13.02;48.65
45071;BME280;30836;48.906;9.140;2022-11-12T04:03:35;1001.62;;;12.99;48.67
45071;BME280;30836;48.906;9.140;2022-11-12T04:04:36;1001.64;;;12.97;48.74
45071;BME280;30836;48.906;9.140;2022-11-12T04:05:36;1001.66;;;12.96;48.83
45071;BME280;30836;48.906;9.140;2022-11-12T04:06:37;1001.64;;;12.95;48.85
45071;BME280;30836;48.906;9.140;2022-11-12T04:07:38;1001.64;;;12.95;48.86
45071;BME280;30836;48.906;9.140;2022-11-12T04:08:38;1001.62;;;12.95;48.95
45071;BME280;30836;48.906;9.140;2022-11-12T04:09:39;1001.60;;;12.94;49.14
45071;BME280;30836;48.906;9.140;2022-11-12T04:10:39;1001.62;;;12.93;49.17
45071;BME280;30836;48.906;9.140;2022-11-12T04:11:40;1001.60;;;12.94;49.18
45071;BME280;30836;48.906;9.140;2022-11-12T04:12:40;1001.60;;;12.94;49.27
45071;BME280;30836;48.906;9.140;2022-11-12T04:13:41;1001.62;;;12.93;49.26
45071;BME280;30836;48.906;9.140;2022-11-12T04:14:43;1001.60;;;12.94;49.21
45071;BME280;30836;48.906;9.140;2022-11-12T04:15:43;1001.60;;;12.94;49.21
45071;BME280;30836;48.906;9.140;2022-11-12T04:16:43;1001.56;;;12.93;49.21
45071;BME280;30836;48.906;9.140;2022-11-12T04:17:44;1001.56;;;12.93;49.23
45071;BME280;30836;48.906;9.140;2022-11-12T04:18:45;1001.58;;;12.92;49.27
45071;BME280;30836;48.906;9.140;2022-11-12T04:19:47;1001.54;;;12.95;49.24
45071;BME280;30836;48.906;9.140;2022-11-12T04:20:47;1001.58;;;13.05;48.86
45071;BME280;30836;48.906;9.140;2022-11-12T04:21:50;1001.58;;;13.20;48.51
45071;BME280;30836;48.906;9.140;2022-11-12T04:22:52;1001.60;;;13.36;48.24
45071;BME280;30836;48.906;9.140;2022-11-12T04:23:53;1001.60;;;13.49;47.97
45071;BME280;30836;48.906;9.140;2022-11-12T04:24:53;1001.62;;;13.62;47.76
45071;BME280;30836;48.906;9.140;2022-11-12T04:25:54;1001.60;;;13.72;47.62
45071;BME280;30836;48.906;9.140;2022-11-12T04:26:54;1001.60;;;13.78;47.56
45071;BME280;30836;48.906;9.140;2022-11-12T04:27:54;1001.58;;;13.77;47.78
45071;BME280;30836;48.906;9.140;2022-11-12T04:28:55;1001.58;;;13.71;47.94
45071;BME280;30836;48.906;9.140;2022-11-12T04:29:55;1001.58;;;13.65;47.95
45071;BME280;30836;48.906;9.140;2022-11-12T04:30:56;1001.58;;;13.57;48.11
45071;BME280;30836;48.906;9.140;2022-11-12T04:31:57;1001.60;;;13.49;48.24
45071;BME280;30836;48.906;9.140;2022-11-12T04:32:57;1001.56;;;13.41;48.32
45071;BME280;30836;48.906;9.140;2022-11-12T04:33:58;1001.58;;;13.35;48.39
45071;BME280;30836;48.906;9.140;2022-11-12T04:34:58;1001.58;;;13.31;48.35
45071;BME280;30836;48.906;9.140;2022-11-12T04:35:59;1001.56;;;13.27;48.38
45071;BME280;30836;48.906;9.140;2022-11-12T04:37:00;1001.58;;;13.25;48.39
45071;BME280;30836;48.906;9.140;2022-11-12T04:38:01;1001.56;;;13.24;48.38
45071;BME280;30836;48.906;9.140;2022-11-12T04:39:02;1001.54;;;13.24;48.43
45071;BME280;30836;48.906;9.140;2022-11-12T04:40:02;1001.54;;;13.23;48.43
45071;BME280;30836;48.906;9.140;2022-11-12T04:41:03;1001.50;;;13.23;48.57
45071;BME280;30836;48.906;9.140;2022-11-12T04:42:04;1001.50;;;13.22;48.62
45071;BME280;30836;48.906;9.140;2022-11-12T04:43:05;1001.50;;;13.21;48.72
45071;BME280;30836;48.906;9.140;2022-11-12T04:44:07;1001.52;;;13.20;48.78
45071;BME280;30836;48.906;9.140;2022-11-12T04:45:08;1001.48;;;13.19;48.78
45071;BME280;30836;48.906;9.140;2022-11-12T04:46:09;1001.48;;;13.17;48.81
45071;BME280;30836;48.906;9.140;2022-11-12T04:47:10;1001.50;;;13.15;48.83
45071;BME280;30836;48.906;9.140;2022-11-12T04:48:10;1001.44;;;13.12;48.87
45071;BME280;30836;48.906;9.140;2022-11-12T04:49:11;1001.46;;;13.10;48.95
45071;BME280;30836;48.906;9.140;2022-11-12T04:50:12;1001.44;;;13.08;48.98
45071;BME280;30836;48.906;9.140;2022-11-12T04:51:15;1001.44;;;13.08;49.00
45071;BME280;30836;48.906;9.140;2022-11-12T04:52:15;1001.42;;;13.10;48.93
45071;BME280;30836;48.906;9.140;2022-11-12T04:53:16;1001.40;;;13.10;48.97
45071;BME280;30836;48.906;9.140;2022-11-12T04:54:17;1001.40;;;13.08;49.02
45071;BME280;30836;48.906;9.140;2022-11-12T04:55:17;1001.40;;;13.07;49.04
45071;BME280;30836;48.906;9.140;2022-11-12T04:56:18;1001.40;;;13.06;49.13
45071;BME280;30836;48.906;9.140;2022-11-12T04:57:18;1001.40;;;13.05;49.22
45071;BME280;30836;48.906;9.140;2022-11-12T04:58:19;1001.42;;;13.04;49.23
45071;BME280;30836;48.906;9.140;2022-11-12T04:59:20;1001.44;;;13.03;49.21
45071;BME280;30836;48.906;9.140;2022-11-12T05:00:20;1001.48;;;13.02;49.16
45071;BME280;30836;48.906;9.140;2022-11-12T05:01:21;1001.50;;;13.01;49.26
45071;BME280;30836;48.906;9.140;2022-11-12T05:02:21;1001.52;;;13.00;49.31
45071;BME280;30836;48.906;9.140;2022-11-12T05:03:22;1001.54;;;13.01;49.27
45071;BME280;30836;48.906;9.140;2022-11-12T05:04:22;1001.56;;;13.01;49.22
45071;BME280;30836;48.906;9.140;2022-11-12T05:05:22;1001.58;;;13.02;49.20
45071;BME280;30836;48.906;9.140;2022-11-12T05:06:23;1001.60;;;13.05;49.17
45071;BME280;30836;48.906;9.140;2022-11-12T05:07:24;1001.64;;;13.08;49.10
45071;BME280;30836;48.906;9.140;2022-11-12T05:08:24;1001.66;;;13.10;49.08
45071;BME280;30836;48.906;9.140;2022-11-12T05:09:25;1001.66;;;13.11;49.00
45071;BME280;30836;48.906;9.140;2022-11-12T05:10:27;1001.70;;;13.14;48.95
45071;BME280;30836;48.906;9.140;2022-11-12T05:11:28;1001.72;;;13.23;48.67
45071;BME280;30836;48.906;9.140;2022-11-12T05:12:29;1001.70;;;13.37;48.34
45071;BME280;30836;48.906;9.140;2022-11-12T05:13:29;1001.72;;;13.51;48.02
45071;BME280;30836;48.906;9.140;2022-11-12T05:14:29;1001.72;;;13.64;47.74
45071;BME280;30836;48.906;9.140;2022-11-12T05:15:30;1001.72;;;13.75;47.56
45071;BME280;30836;48.906;9.140;2022-11-12T05:16:30;1001.72;;;13.85;47.36
45071;BME280;30836;48.906;9.140;2022-11-12T05:17:31;1001.74;;;13.93;47.13
45071;BME280;30836;48.906;9.140;2022-11-12T05:18:31;1001.70;;;14.01;46.97
45071;BME280;30836;48.906;9.140;2022-11-12T05:19:32;1001.70;;;14.08;46.77
45071;BME280;30836;48.906;9.140;2022-11-12T05:20:33;1001.70;;;14.13;46.65
45071;BME280;30836;48.906;9.140;2022-11-12T05:21:34;1001.68;;;14.17;46.52
45071;BME280;30836;48.906;9.140;2022-11-12T05:22:35;1001.70;;;14.20;46.35
45071;BME280;30836;48.906;9.140;2022-11-12T05:23:35;1001.68;;;14.23;46.41
45071;BME280;30836;48.906;9.140;2022-11-12T05:24:37;1001.66;;;14.26;46.36
45071;BME280;30836;48.906;9.140;2022-11-12T05:25:39;1001.66;;;14.28;46.26
45071;BME280;30836;48.906;9.140;2022-11-12T05:26:39;1001.68;;;14.30;46.17
45071;BME280;30836;48.906;9.140;2022-11-12T05:27:40;1001.68;;;14.31;46.17
45071;BME280;30836;48.906;9.140;2022-11-12T05:28:40;1001.72;;;14.30;46.12
45071;BME280;30836;48.906;9.140;2022-11-12T05:29:41;1001.70;;;14.27;46.12